createdAt,value
2024-01-15T00:00:48.058Z,2.39
2024-01-15T00:02:50.438Z,2.48
2024-01-15T00:04:52.819Z,2.52
2024-01-15T00:06:55.361Z,2.54
2024-01-15T00:08:59.559Z,2.55
2024-01-15T00:11:01.905Z,2.59
2024-01-15T00:13:04.371Z,2.63
2024-01-15T00:15:07.259Z,2.65
2024-01-15T00:17:09.590Z,2.66
2024-01-15T00:19:14.316Z,2.71
2024-01-15T00:21:17.331Z,2.73
2024-01-15T00:23:19.643Z,2.67
2024-01-15T00:25:22.020Z,2.76
2024-01-15T00:27:25.138Z,2.83
2024-01-15T00:29:27.517Z,2.82
2024-01-15T00:31:31.285Z,2.83
2024-01-15T00:33:34.253Z,2.81
2024-01-15T00:35:36.968Z,2.91
2024-01-15T00:37:39.320Z,2.93
2024-01-15T00:39:41.854Z,2.97
2024-01-15T00:41:44.398Z,3.02
2024-01-15T00:43:47.455Z,2.99
2024-01-15T00:45:49.760Z,3.03
2024-01-15T00:47:52.262Z,3.06
2024-01-15T00:49:54.584Z,2.98
2024-01-15T00:51:56.986Z,3.05
2024-01-15T00:53:59.411Z,3.09
2024-01-15T00:56:01.940Z,3.14
2024-01-15T00:58:04.546Z,3.18
2024-01-15T01:00:08.136Z,3.21
2024-01-15T01:02:10.588Z,3.21
2024-01-15T01:04:13.339Z,3.17
2024-01-15T01:06:15.870Z,3.20
2024-01-15T01:08:18.303Z,3.25
2024-01-15T01:10:20.750Z,3.31
2024-01-15T01:12:23.143Z,3.37
2024-01-15T01:14:25.617Z,3.37
2024-01-15T01:16:28.058Z,3.39
2024-01-15T01:18:30.545Z,3.38
2024-01-15T01:20:33.177Z,3.42
2024-01-15T01:22:35.677Z,3.46
2024-01-15T01:24:38.014Z,3.45
2024-01-15T01:26:40.489Z,3.46
2024-01-15T01:28:42.752Z,3.53
2024-01-15T01:30:45.419Z,3.51
2024-01-15T01:32:47.996Z,3.55
2024-01-15T01:34:50.619Z,3.57
2024-01-15T01:36:52.984Z,3.52
2024-01-15T01:38:55.437Z,3.61
2024-01-15T01:40:58.256Z,3.67
2024-01-15T01:43:00.486Z,3.68
2024-01-15T01:45:02.893Z,3.71
2024-01-15T01:47:06.092Z,3.73
2024-01-15T01:49:10.489Z,3.78
2024-01-15T01:51:13.586Z,3.82
2024-01-15T01:53:16.313Z,3.82
2024-01-15T01:55:20.530Z,3.82
2024-01-15T01:57:23.050Z,3.83
2024-01-15T01:59:28.137Z,3.85
2024-01-15T02:01:31.920Z,3.88
2024-01-15T02:03:34.720Z,3.92
2024-01-15T02:05:37.769Z,3.92
2024-01-15T02:07:40.067Z,3.95
2024-01-15T02:09:42.994Z,3.97
2024-01-15T02:11:47.716Z,4.03
2024-01-15T02:13:50.196Z,4.01
2024-01-15T02:15:52.442Z,4.03
2024-01-15T02:17:59.519Z,4.00
2024-01-15T02:20:02.133Z,4.07
2024-01-15T02:22:04.693Z,4.08
2024-01-15T02:24:07.220Z,4.10
2024-01-15T02:26:10.485Z,4.12
2024-01-15T02:28:14.654Z,4.16
2024-01-15T02:30:17.435Z,4.19
2024-01-15T02:32:19.971Z,4.22
2024-01-15T02:34:22.325Z,4.22
2024-01-15T02:36:25.214Z,4.21
2024-01-15T02:38:27.487Z,4.23
2024-01-15T02:40:29.853Z,4.27
2024-01-15T02:42:32.117Z,4.25
2024-01-15T02:44:34.655Z,4.29
2024-01-15T02:46:36.940Z,4.28
2024-01-15T02:48:39.356Z,4.29
2024-01-15T02:50:41.675Z,4.30
2024-01-15T02:52:44.301Z,4.34
2024-01-15T02:54:46.642Z,4.35
2024-01-15T02:56:49.049Z,4.39
2024-01-15T02:58:51.326Z,4.42
2024-01-15T03:00:53.723Z,4.43
2024-01-15T03:02:56.208Z,4.41
2024-01-15T03:04:59.097Z,4.46
2024-01-15T03:07:01.596Z,4.57
2024-01-15T03:09:05.127Z,4.62
2024-01-15T03:11:07.528Z,4.67
2024-01-15T03:13:09.845Z,4.63
2024-01-15T03:15:12.374Z,4.60
2024-01-15T03:17:14.716Z,4.61
2024-01-15T03:19:17.156Z,4.62
2024-01-15T03:21:19.772Z,4.71
2024-01-15T03:23:22.119Z,4.77
2024-01-15T03:25:24.426Z,4.82
2024-01-15T03:27:27.467Z,4.78
2024-01-15T03:29:29.844Z,4.76
2024-01-15T03:31:32.317Z,4.75
2024-01-15T03:33:34.717Z,4.73
2024-01-15T03:35:37.178Z,4.65
2024-01-15T03:37:39.614Z,4.67
2024-01-15T03:39:42.043Z,4.67
2024-01-15T03:41:44.518Z,4.68
2024-01-15T03:43:46.868Z,4.66
2024-01-15T03:45:49.278Z,4.66
2024-01-15T03:47:51.771Z,4.56
2024-01-15T03:49:54.253Z,4.59
2024-01-15T03:51:56.601Z,4.63
2024-01-15T03:53:59.089Z,4.66
2024-01-15T03:56:01.380Z,4.65
2024-01-15T03:58:03.792Z,4.66
2024-01-15T04:00:06.913Z,4.68
2024-01-15T04:02:09.240Z,4.73
2024-01-15T04:04:13.250Z,4.74
2024-01-15T04:06:17.438Z,4.81
2024-01-15T04:08:20.040Z,4.80
2024-01-15T04:10:22.553Z,4.83
2024-01-15T04:12:24.781Z,4.89
2024-01-15T04:14:27.244Z,4.92
2024-01-15T04:16:29.577Z,4.96
2024-01-15T04:18:31.922Z,4.91
2024-01-15T04:20:34.236Z,4.96
2024-01-15T04:22:37.403Z,5.04
2024-01-15T04:24:39.965Z,5.09
2024-01-15T04:26:42.335Z,5.20
2024-01-15T04:28:44.611Z,5.30
2024-01-15T04:30:47.128Z,5.34
2024-01-15T04:32:49.582Z,5.30
2024-01-15T04:34:52.110Z,5.23
2024-01-15T04:36:54.486Z,5.26
2024-01-15T04:38:56.820Z,5.34
2024-01-15T04:40:59.071Z,5.30
2024-01-15T04:43:01.517Z,5.41
2024-01-15T04:45:04.995Z,5.35
2024-01-15T04:47:07.702Z,5.46
2024-01-15T04:49:10.184Z,5.38
2024-01-15T04:51:13.057Z,5.41
2024-01-15T04:53:15.551Z,5.36
2024-01-15T04:55:17.990Z,5.43
2024-01-15T04:57:20.390Z,5.43
2024-01-15T04:59:22.856Z,5.38
2024-01-15T05:01:25.282Z,5.38
2024-01-15T05:03:27.933Z,5.43
2024-01-15T05:05:30.381Z,5.45
2024-01-15T05:07:32.805Z,5.44
2024-01-15T05:09:35.508Z,5.46
2024-01-15T05:11:37.931Z,5.42
2024-01-15T05:13:40.357Z,5.42
2024-01-15T05:15:42.793Z,5.36
2024-01-15T05:17:45.173Z,5.42
2024-01-15T05:19:47.745Z,5.44
2024-01-15T05:21:50.107Z,5.46
2024-01-15T05:23:52.636Z,5.40
2024-01-15T05:25:54.981Z,5.43
2024-01-15T05:27:57.525Z,5.39
2024-01-15T05:29:59.990Z,5.44
2024-01-15T05:32:02.954Z,5.40
2024-01-15T05:34:05.710Z,5.44
2024-01-15T05:36:08.232Z,5.47
2024-01-15T05:38:10.730Z,5.50
2024-01-15T05:40:14.443Z,5.49
2024-01-15T05:42:17.041Z,5.54
2024-01-15T05:44:19.356Z,5.56
2024-01-15T05:46:21.734Z,5.48
2024-01-15T05:48:24.176Z,5.50
2024-01-15T05:50:26.774Z,5.48
2024-01-15T05:52:28.987Z,5.62
2024-01-15T05:54:31.434Z,5.64
2024-01-15T05:56:33.826Z,5.65
2024-01-15T05:58:36.289Z,5.43
2024-01-15T06:00:39.736Z,5.60
2024-01-15T06:02:42.303Z,5.64
2024-01-15T06:04:44.769Z,5.65
2024-01-15T06:06:47.149Z,5.66
2024-01-15T06:08:49.590Z,5.63
2024-01-15T06:10:51.854Z,5.61
2024-01-15T06:12:54.296Z,5.59
2024-01-15T06:14:56.712Z,5.62
2024-01-15T06:16:59.020Z,5.62
2024-01-15T06:19:01.430Z,5.65
2024-01-15T06:21:04.000Z,5.68
2024-01-15T06:23:06.371Z,5.70
2024-01-15T06:25:10.111Z,5.70
2024-01-15T06:27:12.527Z,5.71
2024-01-15T06:29:14.869Z,5.73
2024-01-15T06:31:17.303Z,5.64
2024-01-15T06:33:19.782Z,5.70
2024-01-15T06:35:23.822Z,5.74
2024-01-15T06:37:26.667Z,5.78
2024-01-15T06:39:29.039Z,5.78
2024-01-15T06:41:31.532Z,5.78
2024-01-15T06:43:33.939Z,5.77
2024-01-15T06:45:36.421Z,5.80
2024-01-15T06:47:39.059Z,5.83
2024-01-15T06:49:41.635Z,5.85
2024-01-15T06:51:45.806Z,5.88
2024-01-15T06:53:49.661Z,5.85
2024-01-15T06:55:52.758Z,5.88
2024-01-15T06:57:55.125Z,5.84
2024-01-15T06:59:57.603Z,5.87
2024-01-15T07:02:01.006Z,5.84
2024-01-15T07:04:03.648Z,5.86
2024-01-15T07:06:07.228Z,5.84
2024-01-15T07:08:09.649Z,5.84
2024-01-15T07:10:12.081Z,5.83
2024-01-15T07:12:14.504Z,5.85
2024-01-15T07:14:17.051Z,5.86
2024-01-15T07:16:34.327Z,5.86
2024-01-15T07:18:40.179Z,5.89
2024-01-15T07:20:42.810Z,5.93
2024-01-15T07:22:45.563Z,5.88
2024-01-15T07:24:48.059Z,5.90
2024-01-15T07:26:50.727Z,5.92
2024-01-15T07:28:53.259Z,5.93
2024-01-15T07:30:56.135Z,5.88
2024-01-15T07:32:58.632Z,5.91
2024-01-15T07:35:01.196Z,5.92
2024-01-15T07:37:03.717Z,5.87
2024-01-15T07:39:06.138Z,5.92
2024-01-15T07:41:08.459Z,5.94
2024-01-15T07:43:10.879Z,5.91
2024-01-15T07:45:13.313Z,5.85
2024-01-15T07:47:15.836Z,5.89
2024-01-15T07:49:18.875Z,5.90
2024-01-15T07:51:21.329Z,5.87
2024-01-15T07:53:23.978Z,5.86
2024-01-15T07:55:26.383Z,5.84
2024-01-15T07:57:28.986Z,5.85
2024-01-15T07:59:31.394Z,5.87
2024-01-15T08:01:33.787Z,5.86
2024-01-15T08:03:36.206Z,5.86
2024-01-15T08:05:38.679Z,5.89
2024-01-15T08:07:41.009Z,5.84
2024-01-15T08:09:43.606Z,5.92
2024-01-15T08:11:45.952Z,5.96
2024-01-15T08:13:48.434Z,5.96
2024-01-15T08:15:51.839Z,5.98
2024-01-15T08:17:54.385Z,6.01
2024-01-15T08:19:56.823Z,6.01
2024-01-15T08:21:59.318Z,6.03
2024-01-15T08:24:03.652Z,6.01
2024-01-15T08:26:06.462Z,6.06
2024-01-15T08:28:09.760Z,6.04
2024-01-15T08:30:12.559Z,6.07
2024-01-15T08:32:16.784Z,6.04
2024-01-15T08:34:19.461Z,5.97
2024-01-15T08:36:23.279Z,5.94
2024-01-15T08:38:26.779Z,6.01
2024-01-15T08:40:29.018Z,6.01
2024-01-15T08:42:31.843Z,6.02
2024-01-15T08:44:34.330Z,6.02
2024-01-15T08:46:36.682Z,6.03
2024-01-15T08:48:39.090Z,5.95
2024-01-15T08:50:41.534Z,5.98
2024-01-15T08:52:43.871Z,5.90
2024-01-15T08:54:46.387Z,5.93
2024-01-15T08:56:48.813Z,5.92
2024-01-15T08:58:51.526Z,5.78
2024-01-15T09:00:54.142Z,5.75
2024-01-15T09:02:57.894Z,5.85
2024-01-15T09:05:00.887Z,5.90
2024-01-15T09:07:03.661Z,5.89
2024-01-15T09:09:05.926Z,5.88
2024-01-15T09:11:08.325Z,5.85
2024-01-15T09:13:10.589Z,5.78
2024-01-15T09:15:13.466Z,5.92
2024-01-15T09:17:15.810Z,5.95
2024-01-15T09:19:18.375Z,5.99
2024-01-15T09:21:21.198Z,6.00
2024-01-15T09:23:23.628Z,5.96
2024-01-15T09:25:27.059Z,5.95
2024-01-15T09:27:29.404Z,5.89
2024-01-15T09:29:31.856Z,5.81
2024-01-15T09:31:34.418Z,5.87
2024-01-15T09:33:36.964Z,5.86
2024-01-15T09:35:39.386Z,5.90
2024-01-15T09:37:47.794Z,5.80
2024-01-15T09:39:51.478Z,5.86
2024-01-15T09:41:55.308Z,5.87
2024-01-15T09:43:57.517Z,5.84
2024-01-15T09:46:00.433Z,5.78
2024-01-15T09:48:03.256Z,5.73
2024-01-15T09:50:06.575Z,5.75
2024-01-15T09:52:12.061Z,5.71
2024-01-15T09:54:18.464Z,5.58
2024-01-15T09:56:21.012Z,5.57
2024-01-15T09:58:23.619Z,5.50
2024-01-15T10:00:27.465Z,5.54
2024-01-15T10:02:29.991Z,5.54
2024-01-15T10:04:32.532Z,5.46
2024-01-15T10:06:35.712Z,5.52
2024-01-15T10:08:38.512Z,5.51
2024-01-15T10:10:47.613Z,5.55
2024-01-15T10:12:53.138Z,5.49
2024-01-15T10:14:58.132Z,5.52
2024-01-15T10:17:00.974Z,5.52
2024-01-15T10:19:04.198Z,5.56
2024-01-15T10:21:30.153Z,5.50
2024-01-15T10:23:33.964Z,5.44
2024-01-15T10:25:37.296Z,5.50
2024-01-15T10:27:39.676Z,5.53
2024-01-15T10:29:43.898Z,5.50
2024-01-15T10:31:47.308Z,5.54
2024-01-15T10:33:50.759Z,5.48
2024-01-15T10:36:16.995Z,5.48
2024-01-15T10:38:21.486Z,5.51
2024-01-15T10:40:24.287Z,5.49
2024-01-15T10:42:26.618Z,5.48
2024-01-15T10:44:28.933Z,5.47
2024-01-15T10:46:33.011Z,5.50
2024-01-15T10:48:37.171Z,5.55
2024-01-15T10:50:39.915Z,5.44
2024-01-15T10:52:43.181Z,5.53
2024-01-15T10:54:47.272Z,5.58
2024-01-15T10:56:51.013Z,5.59
2024-01-15T10:58:58.857Z,5.49
2024-01-15T11:01:04.323Z,5.56
2024-01-15T11:03:07.873Z,5.56
2024-01-15T11:05:10.297Z,5.53
2024-01-15T11:07:13.463Z,5.61
2024-01-15T11:09:16.980Z,5.58
2024-01-15T11:11:19.841Z,5.41
2024-01-15T11:13:26.319Z,5.48
2024-01-15T11:15:30.785Z,5.56
2024-01-15T11:18:01.466Z,5.40
2024-01-15T11:20:07.972Z,5.48
2024-01-15T11:22:29.545Z,5.57
2024-01-15T11:24:55.122Z,5.57
2024-01-15T11:26:58.268Z,5.62
2024-01-15T11:29:02.841Z,5.60
2024-01-15T11:31:05.542Z,5.65
2024-01-15T11:33:09.051Z,5.61
2024-01-15T11:35:12.848Z,5.64
2024-01-15T11:37:15.742Z,5.44
2024-01-15T11:39:35.967Z,5.60
2024-01-15T11:41:38.738Z,5.67
2024-01-15T11:43:41.154Z,5.67
2024-01-15T11:45:43.987Z,5.54
2024-01-15T11:48:30.813Z,5.60
2024-01-15T11:50:33.336Z,5.63
2024-01-15T11:52:37.393Z,5.60
2024-01-15T11:54:41.578Z,5.57
2024-01-15T11:56:44.068Z,5.62
2024-01-15T11:58:46.930Z,5.68
2024-01-15T12:00:54.589Z,5.56
2024-01-15T12:02:57.522Z,5.65
2024-01-15T12:05:00.004Z,5.65
2024-01-15T12:07:03.255Z,5.57
2024-01-15T12:09:09.767Z,5.64
2024-01-15T12:11:17.004Z,5.65
2024-01-15T12:13:19.407Z,5.71
2024-01-15T12:15:21.988Z,5.50
2024-01-15T12:17:24.848Z,5.57
2024-01-15T12:19:27.413Z,5.62
2024-01-15T12:21:30.317Z,5.50
2024-01-15T12:23:32.909Z,5.58
2024-01-15T12:25:35.925Z,5.54
2024-01-15T12:27:39.453Z,5.45
2024-01-15T12:29:41.815Z,5.44
2024-01-15T12:31:44.213Z,5.54
2024-01-15T12:33:46.690Z,5.60
2024-01-15T12:35:49.189Z,5.64
2024-01-15T12:37:51.541Z,5.66
2024-01-15T12:39:56.168Z,5.61
2024-01-15T12:41:59.194Z,5.63
2024-01-15T12:44:01.593Z,5.65
2024-01-15T12:46:04.262Z,5.67
2024-01-15T12:48:07.209Z,5.65
2024-01-15T12:50:19.363Z,5.65
2024-01-15T12:52:23.194Z,5.67
2024-01-15T12:54:25.982Z,5.66
2024-01-15T12:56:28.259Z,5.66
2024-01-15T12:58:30.787Z,5.56
2024-01-15T13:00:33.106Z,5.58
2024-01-15T13:02:36.241Z,5.60
2024-01-15T13:04:38.940Z,5.61
2024-01-15T13:06:41.394Z,5.63
2024-01-15T13:08:43.671Z,5.62
2024-01-15T13:10:46.127Z,5.60
2024-01-15T13:12:48.542Z,5.53
2024-01-15T13:14:50.991Z,5.60
2024-01-15T13:16:54.986Z,5.65
2024-01-15T13:19:00.415Z,5.56
2024-01-15T13:21:04.174Z,5.54
2024-01-15T13:23:07.163Z,5.58
2024-01-15T13:25:10.261Z,5.42
2024-01-15T13:27:13.296Z,5.52
2024-01-15T13:29:16.359Z,5.58
2024-01-15T13:31:18.762Z,5.52
2024-01-15T13:33:21.531Z,5.58
2024-01-15T13:35:23.868Z,5.55
2024-01-15T13:37:26.427Z,5.62
2024-01-15T13:39:29.023Z,5.60
2024-01-15T13:41:31.412Z,5.63
2024-01-15T13:43:34.408Z,5.59
2024-01-15T13:45:38.790Z,5.62
2024-01-15T13:47:41.672Z,5.62
2024-01-15T13:49:44.114Z,5.57
2024-01-15T13:51:46.472Z,5.54
2024-01-15T13:53:48.810Z,5.50
2024-01-15T13:55:51.103Z,5.55
2024-01-15T13:57:53.762Z,5.56
2024-01-15T13:59:56.537Z,5.59
2024-01-15T14:01:58.958Z,5.56
2024-01-15T14:04:01.930Z,5.59
2024-01-15T14:06:05.560Z,5.56
2024-01-15T14:08:09.433Z,5.48
2024-01-15T14:10:11.872Z,5.39
2024-01-15T14:12:14.341Z,5.56
2024-01-15T14:14:18.441Z,5.42
2024-01-15T14:16:25.844Z,5.47
2024-01-15T14:18:32.822Z,5.45
2024-01-15T14:20:37.422Z,5.49
2024-01-15T14:22:39.848Z,5.50
2024-01-15T14:24:42.197Z,5.44
2024-01-15T14:26:44.925Z,5.49
2024-01-15T14:28:49.723Z,5.40
2024-01-15T14:30:53.570Z,5.22
2024-01-15T14:32:56.592Z,5.32
2024-01-15T14:34:59.233Z,5.36
2024-01-15T14:37:01.578Z,5.46
2024-01-15T14:39:04.224Z,5.49
2024-01-15T14:41:06.693Z,5.39
2024-01-15T14:43:09.724Z,5.34
2024-01-15T14:45:15.019Z,5.29
2024-01-15T14:47:17.439Z,5.40
2024-01-15T14:49:19.895Z,5.29
2024-01-15T14:51:22.436Z,5.45
2024-01-15T14:53:24.743Z,5.39
2024-01-15T14:55:27.234Z,5.39
2024-01-15T14:57:29.777Z,5.45
2024-01-15T14:59:32.213Z,5.48
2024-01-15T15:01:34.842Z,5.51
2024-01-15T15:03:37.511Z,5.53
2024-01-15T15:05:39.849Z,5.27
2024-01-15T15:07:42.200Z,5.27
2024-01-15T15:09:44.558Z,5.18
2024-01-15T15:11:46.967Z,5.38
2024-01-15T15:13:49.472Z,5.43
2024-01-15T15:15:51.887Z,5.43
2024-01-15T15:17:54.283Z,5.38
2024-01-15T15:19:57.254Z,5.37
2024-01-15T15:22:23.513Z,5.39
2024-01-15T15:24:26.087Z,5.37
2024-01-15T15:26:28.613Z,5.37
2024-01-15T15:28:30.885Z,5.44
2024-01-15T15:30:33.504Z,5.45
2024-01-15T15:32:35.947Z,5.38
2024-01-15T15:34:38.461Z,5.39
2024-01-15T15:36:40.922Z,5.42
2024-01-15T15:38:43.312Z,5.42
2024-01-15T15:40:45.669Z,5.48
2024-01-15T15:42:48.104Z,5.39
2024-01-15T15:44:52.650Z,5.36
2024-01-15T15:46:55.215Z,5.30
2024-01-15T15:48:57.703Z,5.35
2024-01-15T15:51:01.548Z,5.42
2024-01-15T15:53:04.861Z,5.37
2024-01-15T15:55:09.373Z,5.37
2024-01-15T15:57:12.272Z,5.36
2024-01-15T15:59:14.817Z,5.35
2024-01-15T16:01:17.291Z,5.26
2024-01-15T16:03:19.955Z,5.27
2024-01-15T16:05:31.323Z,5.18
2024-01-15T16:07:40.250Z,5.13
2024-01-15T16:09:42.710Z,5.22
2024-01-15T16:11:45.620Z,5.22
2024-01-15T16:13:48.039Z,5.27
2024-01-15T16:15:53.108Z,5.00
2024-01-15T16:23:19.815Z,5.18
2024-01-15T16:23:31.504Z,5.23
2024-01-15T16:23:46.674Z,5.09
2024-01-15T16:25:22.789Z,5.23
2024-01-15T16:27:25.212Z,5.24
2024-01-15T16:29:27.616Z,5.22
2024-01-15T16:31:29.997Z,5.21
2024-01-15T16:33:32.498Z,5.16
2024-01-15T16:35:34.933Z,5.13
2024-01-15T16:37:37.476Z,5.19
2024-01-15T16:39:39.860Z,5.24
2024-01-15T16:41:42.187Z,5.22
2024-01-15T16:43:44.696Z,5.09
2024-01-15T16:45:47.306Z,4.95
2024-01-15T16:47:49.806Z,5.05
2024-01-15T16:49:52.233Z,5.18
2024-01-15T16:51:54.642Z,5.22
2024-01-15T16:53:56.994Z,5.19
2024-01-15T16:55:59.569Z,5.23
2024-01-15T16:58:02.082Z,5.33
2024-01-15T17:00:04.718Z,5.19
2024-01-15T17:02:07.158Z,5.30
2024-01-15T17:04:09.884Z,5.38
2024-01-15T17:06:12.076Z,5.35
2024-01-15T17:08:14.519Z,5.37
2024-01-15T17:10:16.780Z,5.35
2024-01-15T17:12:19.333Z,5.34
2024-01-15T17:14:21.681Z,5.37
2024-01-15T17:16:24.105Z,5.21
2024-01-15T17:18:26.822Z,5.24
2024-01-15T17:20:29.447Z,5.26
2024-01-15T17:22:32.359Z,5.19
2024-01-15T17:24:34.888Z,5.16
2024-01-15T17:26:37.410Z,5.07
2024-01-15T17:28:39.876Z,5.11
2024-01-15T17:30:42.255Z,5.17
2024-01-15T17:32:44.903Z,5.11
2024-01-15T17:34:47.838Z,5.03
2024-01-15T17:36:50.343Z,4.90
2024-01-15T17:38:55.010Z,4.86
2024-01-15T17:41:00.421Z,4.97
2024-01-15T17:43:02.889Z,4.94
2024-01-15T17:45:08.000Z,4.98
2024-01-15T17:47:10.299Z,5.00
2024-01-15T17:49:12.850Z,5.03
2024-01-15T17:51:38.421Z,4.89
2024-01-15T17:53:40.774Z,4.97
2024-01-15T17:55:43.760Z,4.97
2024-01-15T17:57:46.771Z,4.98
2024-01-15T17:59:49.094Z,4.91
2024-01-15T18:01:53.088Z,4.92
2024-01-15T18:03:57.558Z,4.96
2024-01-15T18:06:03.177Z,4.99
2024-01-15T18:08:05.901Z,4.96
2024-01-15T18:10:08.917Z,4.98
2024-01-15T18:12:15.564Z,5.01
2024-01-15T18:14:19.013Z,5.00
2024-01-15T18:16:29.222Z,4.98
2024-01-15T18:18:35.217Z,4.95
2024-01-15T18:20:37.822Z,4.91
2024-01-15T18:22:40.202Z,4.88
2024-01-15T18:24:42.799Z,4.89
2024-01-15T18:26:45.088Z,4.83
2024-01-15T18:28:50.425Z,4.90
2024-01-15T18:30:53.184Z,4.95
2024-01-15T18:32:55.700Z,5.02
2024-01-15T18:34:58.283Z,5.03
2024-01-15T18:37:00.985Z,5.07
2024-01-15T18:39:07.363Z,5.07
2024-01-15T18:41:12.595Z,5.02
2024-01-15T18:43:15.484Z,5.04
2024-01-15T18:45:18.162Z,5.01
2024-01-15T18:47:20.983Z,5.05
2024-01-15T18:49:24.670Z,5.02
2024-01-15T18:51:30.764Z,5.05
2024-01-15T18:53:38.449Z,5.07
2024-01-15T18:55:40.831Z,4.98
2024-01-15T18:57:43.843Z,5.05
2024-01-15T18:59:52.049Z,4.85
2024-01-15T19:01:54.366Z,4.93
2024-01-15T19:03:57.813Z,4.98
2024-01-15T19:06:00.425Z,4.97
2024-01-15T19:08:02.819Z,4.98
2024-01-15T19:10:05.550Z,4.99
2024-01-15T19:12:13.834Z,5.00
2024-01-15T19:14:16.144Z,4.95
2024-01-15T19:16:23.611Z,5.01
2024-01-15T19:18:27.984Z,5.01
2024-01-15T19:20:30.358Z,5.02
2024-01-15T19:22:35.247Z,4.98
2024-01-15T19:24:39.099Z,4.95
2024-01-15T19:26:50.177Z,4.97
2024-01-15T19:28:52.575Z,4.81
2024-01-15T19:30:55.590Z,4.83
2024-01-15T19:33:01.151Z,4.85
2024-01-15T19:35:03.943Z,4.94
2024-01-15T19:37:06.547Z,4.90
2024-01-15T19:39:11.568Z,4.90
2024-01-15T19:41:15.676Z,4.87
2024-01-15T19:43:18.123Z,4.93
2024-01-15T19:45:20.590Z,4.94
2024-01-15T19:47:34.962Z,4.97
2024-01-15T19:49:38.912Z,5.00
2024-01-15T19:51:44.806Z,4.97
2024-01-15T19:53:47.996Z,4.98
2024-01-15T19:55:53.212Z,4.90
2024-01-15T19:57:55.590Z,4.94
2024-01-15T20:00:00.318Z,4.95
2024-01-15T20:02:02.757Z,4.95
2024-01-15T20:04:05.254Z,4.81
2024-01-15T20:06:13.003Z,4.88
2024-01-15T20:08:15.530Z,4.89
2024-01-15T20:10:20.084Z,4.91
2024-01-15T20:12:22.779Z,4.91
2024-01-15T20:14:28.293Z,4.74
2024-01-15T20:16:30.704Z,4.82
2024-01-15T20:18:34.185Z,4.76
2024-01-15T20:20:37.055Z,4.90
2024-01-15T20:22:39.413Z,4.92
2024-01-15T20:24:42.006Z,4.93
2024-01-15T20:26:44.724Z,4.92
2024-01-15T20:28:48.112Z,4.84
2024-01-15T20:30:51.259Z,4.82
2024-01-15T20:32:54.270Z,4.82
2024-01-15T20:34:56.558Z,4.61
2024-01-15T20:37:01.711Z,4.63
2024-01-15T20:39:29.410Z,4.69
2024-01-15T20:41:32.517Z,4.70
2024-01-15T20:43:37.631Z,4.72
2024-01-15T20:45:39.952Z,4.77
2024-01-15T20:47:42.332Z,4.75
2024-01-15T20:49:44.761Z,4.83
2024-01-15T20:51:47.417Z,4.79
2024-01-15T20:53:52.345Z,4.71
2024-01-15T20:55:54.649Z,4.71
2024-01-15T20:57:57.022Z,4.70
2024-01-15T21:00:00.546Z,4.71
2024-01-15T21:02:03.112Z,4.73
2024-01-15T21:04:28.993Z,4.77
2024-01-15T21:06:32.599Z,4.73
2024-01-15T21:08:36.057Z,4.63
2024-01-15T21:10:38.712Z,4.71
2024-01-15T21:12:42.107Z,4.71
2024-01-15T21:14:44.642Z,4.69
2024-01-15T21:16:48.278Z,4.61
2024-01-15T21:18:51.963Z,4.58
2024-01-15T21:20:55.930Z,4.42
2024-01-15T21:22:59.349Z,4.56
2024-01-15T21:25:01.673Z,4.59
2024-01-15T21:27:05.604Z,4.58
2024-01-15T21:29:08.153Z,4.62
2024-01-15T21:31:11.636Z,4.49
2024-01-15T21:33:14.185Z,4.59
2024-01-15T21:35:16.761Z,4.58
2024-01-15T21:37:19.230Z,4.61
2024-01-15T21:39:21.503Z,4.55
2024-01-15T21:41:23.830Z,4.49
2024-01-15T21:43:26.260Z,4.54
2024-01-15T21:45:28.478Z,4.64
2024-01-15T21:47:31.286Z,4.55
2024-01-15T21:49:33.543Z,4.57
2024-01-15T21:51:36.372Z,4.60
2024-01-15T21:53:39.081Z,4.58
2024-01-15T21:55:41.642Z,4.57
2024-01-15T21:57:43.902Z,4.55
2024-01-15T21:59:46.453Z,4.53
2024-01-15T22:02:04.877Z,4.50
2024-01-15T22:04:08.847Z,4.43
2024-01-15T22:06:12.911Z,4.45
2024-01-15T22:08:21.529Z,4.44
2024-01-15T22:10:23.955Z,4.48
2024-01-15T22:12:26.340Z,4.54
2024-01-15T22:14:31.377Z,4.50
2024-01-15T22:16:33.834Z,4.45
2024-01-15T22:18:36.761Z,4.42
2024-01-15T22:20:41.335Z,4.43
2024-01-15T22:22:43.711Z,4.44
2024-01-15T22:24:46.502Z,4.46
2024-01-15T22:26:50.140Z,4.47
2024-01-15T22:28:52.749Z,4.41
2024-01-15T22:30:55.408Z,4.41
2024-01-15T22:32:57.966Z,4.41
2024-01-15T22:35:00.678Z,4.32
2024-01-15T22:37:03.247Z,4.33
2024-01-15T22:39:05.688Z,4.25
2024-01-15T22:41:08.181Z,4.19
2024-01-15T22:43:10.629Z,4.24
2024-01-15T22:45:16.800Z,4.25
2024-01-15T22:47:20.104Z,4.25
2024-01-15T22:49:23.521Z,4.26
2024-01-15T22:51:25.997Z,4.19
2024-01-15T22:53:28.344Z,4.22
2024-01-15T22:55:30.732Z,4.18
2024-01-15T22:57:33.480Z,4.21
2024-01-15T22:59:36.610Z,4.09
2024-01-15T23:01:39.751Z,4.17
2024-01-15T23:03:42.799Z,4.13
2024-01-15T23:05:45.854Z,4.21
2024-01-15T23:07:52.333Z,4.18
2024-01-15T23:09:54.783Z,4.26
2024-01-15T23:11:57.099Z,4.21
2024-01-15T23:13:59.621Z,4.20
2024-01-15T23:16:02.311Z,4.24
2024-01-15T23:18:08.375Z,4.19
2024-01-15T23:20:12.583Z,4.12
2024-01-15T23:22:15.196Z,4.21
2024-01-15T23:24:17.506Z,4.24
2024-01-15T23:26:20.479Z,4.29
2024-01-15T23:28:22.931Z,4.32
2024-01-15T23:30:25.198Z,4.23
2024-01-15T23:32:27.708Z,4.26
2024-01-15T23:34:30.257Z,4.26
2024-01-15T23:36:32.787Z,4.18
2024-01-15T23:38:35.169Z,4.33
2024-01-15T23:40:37.561Z,4.27
2024-01-15T23:42:41.012Z,4.29
2024-01-15T23:44:43.443Z,4.21
2024-01-15T23:46:46.311Z,4.27
2024-01-15T23:48:48.945Z,4.24
2024-01-15T23:50:51.443Z,4.28
2024-01-15T23:52:53.829Z,4.36
2024-01-15T23:54:56.174Z,4.32
2024-01-15T23:56:59.268Z,4.30
2024-01-15T23:59:01.815Z,4.31
